createdAt,value
2018-08-04T00:00:24.175Z,12.67
2018-08-04T00:02:53.671Z,12.83
2018-08-04T00:05:37.656Z,12.53
2018-08-04T00:08:18.521Z,12.95
2018-08-04T00:10:48.426Z,11.93
2018-08-04T00:13:17.157Z,12.60
2018-08-04T00:15:45.905Z,11.57
2018-08-04T00:18:14.638Z,11.83
2018-08-04T00:23:20.833Z,11.97
2018-08-04T00:26:06.187Z,13.00
2018-08-04T00:28:34.893Z,12.90
2018-08-04T00:31:03.644Z,12.50
2018-08-04T00:33:32.348Z,12.70
2018-08-04T00:36:01.060Z,12.07
2018-08-04T00:38:36.239Z,12.47
2018-08-04T00:41:13.203Z,12.00
2018-08-04T00:43:41.863Z,12.43
2018-08-04T00:46:10.573Z,12.43
2018-08-04T00:48:39.230Z,13.43
2018-08-04T00:51:07.890Z,12.40
2018-08-04T00:53:36.550Z,12.20
2018-08-04T00:56:05.199Z,13.30
2018-08-04T00:58:33.875Z,11.90
2018-08-04T01:01:02.556Z,12.37
2018-08-04T01:03:32.373Z,12.30
2018-08-04T01:06:01.054Z,12.60
2018-08-04T01:08:30.993Z,14.03
2018-08-04T01:11:05.442Z,13.00
2018-08-04T01:13:34.110Z,15.77
2018-08-04T01:16:02.816Z,13.17
2018-08-04T01:18:31.758Z,13.53
2018-08-04T01:21:01.236Z,13.27
2018-08-04T01:23:42.370Z,12.97
2018-08-04T01:26:11.164Z,13.47
2018-08-04T01:28:39.812Z,11.83
2018-08-04T01:31:08.509Z,12.20
2018-08-04T01:33:37.159Z,13.67
2018-08-04T01:36:05.539Z,14.00
2018-08-04T01:38:34.213Z,12.43
2018-08-04T01:41:02.879Z,11.60
2018-08-04T01:43:31.496Z,12.27
2018-08-04T01:46:00.118Z,13.30
2018-08-04T01:48:28.760Z,13.03
2018-08-04T01:50:57.416Z,13.63
2018-08-04T01:53:26.080Z,13.60
2018-08-04T01:55:54.712Z,12.57
2018-08-04T01:58:26.332Z,13.90
2018-08-04T02:00:55.361Z,14.43
2018-08-04T02:03:24.022Z,13.63
2018-08-04T02:06:05.733Z,13.47
2018-08-04T02:08:39.650Z,13.67
2018-08-04T02:11:08.331Z,13.43
2018-08-04T02:13:36.960Z,13.27
2018-08-04T02:16:05.838Z,13.53
2018-08-04T02:18:34.504Z,12.83
2018-08-04T02:21:03.185Z,12.67
2018-08-04T02:23:31.853Z,13.27
2018-08-04T02:26:00.512Z,12.80
2018-08-04T02:28:29.144Z,13.80
2018-08-04T02:31:08.137Z,13.70
2018-08-04T02:33:36.800Z,12.50
2018-08-04T02:36:08.153Z,13.90
2018-08-04T02:38:36.879Z,15.80
2018-08-04T02:41:05.688Z,13.00
2018-08-04T02:43:34.413Z,12.90
2018-08-04T02:46:03.097Z,13.47
2018-08-04T02:48:31.793Z,14.67
2018-08-04T02:51:01.981Z,13.10
2018-08-04T02:53:48.007Z,13.53
2018-08-04T02:56:16.764Z,13.10
2018-08-04T02:58:48.149Z,12.87
2018-08-04T03:01:16.775Z,13.53
2018-08-04T03:03:45.412Z,13.83
2018-08-04T03:06:14.065Z,13.63
2018-08-04T03:08:47.911Z,14.00
2018-08-04T03:12:11.876Z,13.40
2018-08-04T03:14:47.978Z,13.43
2018-08-04T03:19:54.245Z,13.07
2018-08-04T03:22:22.934Z,13.37
2018-08-04T03:24:51.711Z,13.63
2018-08-04T03:27:20.476Z,13.30
2018-08-04T03:29:49.164Z,13.07
2018-08-04T03:32:17.856Z,14.17
2018-08-04T03:34:46.503Z,14.27
2018-08-04T03:37:15.819Z,14.20
2018-08-04T03:39:44.531Z,13.63
2018-08-04T03:42:14.104Z,13.60
2018-08-04T03:44:53.607Z,12.70
2018-08-04T03:47:22.574Z,13.10
2018-08-04T03:49:51.223Z,12.87
2018-08-04T03:52:19.504Z,14.57
2018-08-04T03:54:48.155Z,13.67
2018-08-04T03:57:16.791Z,12.87
2018-08-04T03:59:45.599Z,14.57
2018-08-04T04:02:20.185Z,14.20
2018-08-04T04:04:48.858Z,14.53
2018-08-04T04:07:17.636Z,13.87
2018-08-04T04:09:47.740Z,14.07
2018-08-04T04:15:06.915Z,14.53
2018-08-04T04:20:26.619Z,15.83
2018-08-04T04:22:55.401Z,15.43
2018-08-04T04:25:24.064Z,16.73
2018-08-04T04:27:52.844Z,16.03
2018-08-04T04:30:21.544Z,15.97
2018-08-04T04:32:54.263Z,15.60
2018-08-04T04:35:22.907Z,15.07
2018-08-04T04:37:51.600Z,14.97
2018-08-04T04:40:20.259Z,15.67
2018-08-04T04:42:48.895Z,16.30
2018-08-04T04:45:17.579Z,15.07
2018-08-04T04:47:54.203Z,14.13
2018-08-04T04:50:22.863Z,13.63
2018-08-04T04:52:59.080Z,12.47
2018-08-04T04:55:27.804Z,13.90
2018-08-04T04:58:09.184Z,14.03
2018-08-04T05:00:41.217Z,14.93
2018-08-04T05:03:09.964Z,15.50
2018-08-04T05:05:38.641Z,14.60
2018-08-04T05:08:10.408Z,15.00
2018-08-04T05:10:49.989Z,14.90
2018-08-04T05:13:18.683Z,14.23
2018-08-04T05:15:47.413Z,14.70
2018-08-04T05:18:16.160Z,14.37
2018-08-04T05:20:48.781Z,12.17
2018-08-04T05:23:23.254Z,13.63
2018-08-04T05:25:51.905Z,14.00
2018-08-04T05:28:20.655Z,13.43
2018-08-04T05:30:49.364Z,13.33
2018-08-04T05:33:18.193Z,14.43
2018-08-04T05:35:54.969Z,14.17
2018-08-04T05:38:23.696Z,13.53
2018-08-04T05:40:52.368Z,13.73
2018-08-04T05:43:22.764Z,14.80
2018-08-04T05:45:56.685Z,13.63
2018-08-04T05:48:31.400Z,14.07
2018-08-04T05:51:00.119Z,14.10
2018-08-04T05:53:30.061Z,13.50
2018-08-04T05:55:58.691Z,13.83
2018-08-04T05:58:27.376Z,13.30
2018-08-04T06:00:56.078Z,14.50
2018-08-04T06:03:24.817Z,14.23
2018-08-04T06:05:53.773Z,12.87
2018-08-04T06:08:22.455Z,13.30
2018-08-04T06:11:05.510Z,13.10
2018-08-04T06:13:34.904Z,13.20
2018-08-04T06:18:39.148Z,12.07
2018-08-04T06:21:07.828Z,11.13
2018-08-04T06:23:38.553Z,11.60
2018-08-04T06:26:13.449Z,11.90
2018-08-04T06:29:01.715Z,11.70
2018-08-04T06:31:30.126Z,11.33
2018-08-04T06:33:58.800Z,11.20
2018-08-04T06:36:27.482Z,11.47
2018-08-04T06:39:15.969Z,10.87
2018-08-04T06:41:46.296Z,10.60
2018-08-04T06:44:14.992Z,10.93
2018-08-04T06:46:43.644Z,10.07
2018-08-04T06:49:15.569Z,11.37
2018-08-04T06:51:44.250Z,10.98
2018-08-04T06:54:13.005Z,11.24
2018-08-04T06:56:41.675Z,11.25
2018-08-04T06:59:14.901Z,11.60
2018-08-04T07:01:44.472Z,9.53
2018-08-04T07:04:13.508Z,10.43
2018-08-04T07:06:47.101Z,10.13
2018-08-04T07:09:16.182Z,9.47
2018-08-04T07:11:44.887Z,10.03
2018-08-04T07:14:13.536Z,10.58
2018-08-04T07:16:42.240Z,9.63
2018-08-04T07:19:18.551Z,9.50
2018-08-04T07:21:55.808Z,9.88
2018-08-04T07:24:25.238Z,9.90
2018-08-04T07:27:01.180Z,9.50
2018-08-04T07:29:30.027Z,8.98
2018-08-04T07:32:04.268Z,10.30
2018-08-04T07:34:32.942Z,10.68
2018-08-04T07:37:01.589Z,10.68
2018-08-04T07:39:33.532Z,9.60
2018-08-04T07:42:09.798Z,9.65
2018-08-04T07:44:44.542Z,10.55
2018-08-04T07:47:13.376Z,10.03
2018-08-04T07:49:42.085Z,10.43
2018-08-04T07:52:13.309Z,10.35
2018-08-04T07:54:50.057Z,10.68
2018-08-04T07:57:27.875Z,10.00
2018-08-04T08:00:13.441Z,10.03
2018-08-04T08:02:48.049Z,10.53
2018-08-04T08:05:30.230Z,10.18
2018-08-04T08:08:05.694Z,9.53
2018-08-04T08:10:38.120Z,10.03
2018-08-04T08:13:06.901Z,10.15
2018-08-04T08:15:43.854Z,9.58
2018-08-04T08:18:12.529Z,10.45
2018-08-04T08:20:49.098Z,9.75
2018-08-04T08:23:20.579Z,10.55
2018-08-04T08:26:06.712Z,10.48
2018-08-04T08:28:45.838Z,9.73
2018-08-04T08:31:20.099Z,9.73
2018-08-04T08:33:52.827Z,10.00
2018-08-04T08:36:21.226Z,9.53
2018-08-04T08:39:00.761Z,9.60
2018-08-04T08:41:44.488Z,10.55
2018-08-04T08:44:13.141Z,9.35
2018-08-04T08:46:52.939Z,9.83
2018-08-04T08:49:29.675Z,9.58
2018-08-04T08:51:58.807Z,11.88
2018-08-04T08:54:27.472Z,9.48
2018-08-04T08:56:55.892Z,8.53
2018-08-04T08:59:24.537Z,13.70
2018-08-04T09:02:06.507Z,9.28
2018-08-04T09:04:37.599Z,9.65
2018-08-04T09:07:24.250Z,9.83
2018-08-04T09:09:55.704Z,8.85
2018-08-04T09:12:30.767Z,11.60
2018-08-04T09:15:11.547Z,9.78
2018-08-04T09:17:47.524Z,11.40
2018-08-04T09:20:16.308Z,9.75
2018-08-04T09:22:45.032Z,9.90
2018-08-04T09:25:30.251Z,9.63
2018-08-04T09:28:12.693Z,9.00
2018-08-04T09:30:44.615Z,9.83
2018-08-04T09:33:13.399Z,9.23
2018-08-04T09:38:33.243Z,9.60
2018-08-04T09:41:05.578Z,9.33
2018-08-04T09:43:47.562Z,9.78
2018-08-04T09:46:16.286Z,9.85
2018-08-04T09:48:53.004Z,9.45
2018-08-04T09:51:24.125Z,12.73
2018-08-04T09:53:56.400Z,9.35
2018-08-04T09:56:36.879Z,9.10
2018-08-04T09:59:05.722Z,9.75
2018-08-04T10:01:36.256Z,10.23
2018-08-04T10:04:18.020Z,9.83
2018-08-04T10:06:48.709Z,10.10
2018-08-04T10:09:37.672Z,10.00
2018-08-04T10:15:00.670Z,10.45
2018-08-04T10:17:44.138Z,9.78
2018-08-04T10:20:15.846Z,10.00
2018-08-04T10:28:07.185Z,9.93
2018-08-04T10:30:48.794Z,11.15
2018-08-04T10:33:38.468Z,12.03
2018-08-04T10:36:15.659Z,10.56
2018-08-04T10:39:00.397Z,10.10
2018-08-04T10:44:23.337Z,11.60
2018-08-04T10:47:00.722Z,10.00
2018-08-04T10:49:31.951Z,10.95
2018-08-04T10:52:04.810Z,10.38
2018-08-04T10:54:43.666Z,10.93
2018-08-04T10:57:26.360Z,10.49
2018-08-04T11:00:03.313Z,13.13
2018-08-04T11:02:44.747Z,10.50
2018-08-04T11:05:19.617Z,9.98
2018-08-04T11:10:54.716Z,11.30
2018-08-04T11:13:33.492Z,10.88
2018-08-04T11:16:02.186Z,11.70
2018-08-04T11:21:22.425Z,12.07
2018-08-04T11:23:56.634Z,12.47
2018-08-04T11:29:13.500Z,12.53
2018-08-04T11:31:54.838Z,12.10
2018-08-04T11:34:28.836Z,12.13
2018-08-04T11:36:57.484Z,12.07
2018-08-04T11:39:26.138Z,12.50
2018-08-04T11:41:54.894Z,12.95
2018-08-04T11:44:23.568Z,13.10
2018-08-04T11:46:52.219Z,12.53
2018-08-04T11:49:36.345Z,13.35
2018-08-04T11:52:06.463Z,13.08
2018-08-04T11:54:35.136Z,12.60
2018-08-04T12:05:23.504Z,13.58
2018-08-04T12:07:52.400Z,13.40
2018-08-04T12:10:34.668Z,12.75
2018-08-04T12:13:03.462Z,13.40
2018-08-04T12:15:33.068Z,13.88
2018-08-04T12:18:14.000Z,12.90
2018-08-04T12:20:58.578Z,13.20
2018-08-04T12:23:29.380Z,13.00
2018-08-04T12:26:09.945Z,12.98
2018-08-04T12:28:47.356Z,13.08
2018-08-04T12:31:17.796Z,12.53
2018-08-04T12:34:03.076Z,13.43
2018-08-04T12:36:38.147Z,13.28
2018-08-04T12:39:08.639Z,13.05
2018-08-04T12:41:41.356Z,13.00
2018-08-04T12:44:16.876Z,12.88
2018-08-04T12:46:49.804Z,12.98
2018-08-04T12:49:25.449Z,12.58
2018-08-04T12:51:57.276Z,13.00
2018-08-04T12:54:26.732Z,14.13
2018-08-04T12:57:03.293Z,12.28
2018-08-04T12:59:42.545Z,13.35
2018-08-04T13:02:11.307Z,12.50
2018-08-04T13:04:40.005Z,13.40
2018-08-04T13:07:08.829Z,12.43
2018-08-04T13:09:37.891Z,12.78
2018-08-04T13:12:06.681Z,12.73
2018-08-04T13:14:35.425Z,12.28
2018-08-04T13:17:04.164Z,11.33
2018-08-04T13:19:32.459Z,12.00
2018-08-04T13:22:01.144Z,12.65
2018-08-04T13:24:29.865Z,12.65
2018-08-04T13:27:13.931Z,11.90
2018-08-04T13:29:49.509Z,12.13
2018-08-04T13:32:33.016Z,13.62
2018-08-04T13:35:03.294Z,13.18
2018-08-04T13:37:32.167Z,13.03
2018-08-04T13:40:00.993Z,13.08
2018-08-04T13:42:41.436Z,13.32
2018-08-04T13:45:29.772Z,12.60
2018-08-04T13:48:16.679Z,13.15
2018-08-04T13:50:49.713Z,12.98
2018-08-04T13:56:16.212Z,13.22
2018-08-04T13:58:56.525Z,12.85
2018-08-04T14:01:33.605Z,12.68
2018-08-04T14:04:04.373Z,11.85
2018-08-04T14:06:40.614Z,12.93
2018-08-04T14:09:10.697Z,11.93
2018-08-04T14:11:43.972Z,12.37
2018-08-04T14:14:16.660Z,12.98
2018-08-04T14:16:47.307Z,12.37
2018-08-04T14:19:26.228Z,12.98
2018-08-04T14:21:57.790Z,12.82
2018-08-04T14:24:33.435Z,13.08
2018-08-04T14:27:19.448Z,12.05
2018-08-04T14:30:04.679Z,12.88
2018-08-04T14:32:33.563Z,12.07
2018-08-04T14:35:02.282Z,13.05
2018-08-04T14:37:30.964Z,13.18
2018-08-04T14:42:44.487Z,12.30
2018-08-04T14:45:27.485Z,12.80
2018-08-04T14:48:03.825Z,11.75
2018-08-04T14:50:48.482Z,12.73
2018-08-04T14:53:29.060Z,11.88
2018-08-04T14:55:59.393Z,12.50
2018-08-04T14:58:28.113Z,12.23
2018-08-04T15:00:56.868Z,11.95
2018-08-04T15:03:25.532Z,12.35
2018-08-04T15:05:57.247Z,12.60
2018-08-04T15:08:25.944Z,12.60
2018-08-04T15:10:54.632Z,14.03
2018-08-04T15:13:23.664Z,11.38
2018-08-04T15:15:52.340Z,12.20
2018-08-04T15:18:27.640Z,10.25
2018-08-04T15:21:00.950Z,10.40
2018-08-04T15:23:31.601Z,9.83
2018-08-04T15:26:10.118Z,8.75
2018-08-04T15:28:40.877Z,9.43
2018-08-04T15:31:14.103Z,9.15
2018-08-04T15:33:47.775Z,8.75
2018-08-04T15:36:22.871Z,8.70
2018-08-04T15:38:52.339Z,9.38
2018-08-04T15:41:24.648Z,9.35
2018-08-04T15:43:57.806Z,10.00
2018-08-04T15:46:26.459Z,9.35
2018-08-04T15:48:55.123Z,10.05
2018-08-04T15:51:23.823Z,9.35
2018-08-04T15:53:52.937Z,9.38
2018-08-04T15:56:24.525Z,10.35
2018-08-04T15:58:59.320Z,11.08
2018-08-04T16:01:34.337Z,9.55
2018-08-04T16:04:09.811Z,9.53
2018-08-04T16:06:46.422Z,10.45
2018-08-04T16:09:15.969Z,10.40
2018-08-04T16:11:48.305Z,10.63
2018-08-04T16:14:18.270Z,9.90
2018-08-04T16:16:50.166Z,9.80
2018-08-04T16:19:26.627Z,9.85
2018-08-04T16:22:01.045Z,9.70
2018-08-04T16:24:29.767Z,9.45
2018-08-04T16:26:58.459Z,9.80
2018-08-04T16:29:27.108Z,9.80
2018-08-04T16:31:57.844Z,9.78
2018-08-04T16:34:33.157Z,10.00
2018-08-04T16:37:01.919Z,11.33
2018-08-04T16:39:33.883Z,10.32
2018-08-04T16:42:02.695Z,13.10
2018-08-04T16:44:42.808Z,11.20
2018-08-04T16:47:12.471Z,10.53
2018-08-04T16:49:42.179Z,9.65
2018-08-04T16:52:10.889Z,10.35
2018-08-04T16:54:44.052Z,10.30
2018-08-04T16:57:25.353Z,10.15
2018-08-04T16:59:55.049Z,11.73
2018-08-04T17:02:31.899Z,10.63
2018-08-04T17:05:00.593Z,12.50
2018-08-04T17:07:30.357Z,10.70
2018-08-04T17:12:37.907Z,11.25
2018-08-04T17:15:17.811Z,11.94
2018-08-04T17:17:52.277Z,11.68
2018-08-04T17:20:24.996Z,11.30
2018-08-04T17:22:53.807Z,10.93
2018-08-04T17:25:24.520Z,11.83
2018-08-04T17:28:08.568Z,11.78
2018-08-04T17:30:48.365Z,13.88
2018-08-04T17:33:18.205Z,16.55
2018-08-04T17:38:51.313Z,11.33
2018-08-04T17:41:33.599Z,12.10
2018-08-04T17:44:03.266Z,11.57
2018-08-04T17:46:31.909Z,12.23
2018-08-04T17:49:00.648Z,11.38
2018-08-04T17:51:29.406Z,11.88
2018-08-04T17:54:02.217Z,11.75
2018-08-04T17:56:30.876Z,11.63
2018-08-04T17:59:05.121Z,10.98
2018-08-04T18:01:42.367Z,11.90
2018-08-04T18:04:21.550Z,13.15
2018-08-04T18:06:50.227Z,12.33
2018-08-04T18:09:29.966Z,11.48
2018-08-04T18:12:04.617Z,11.45
2018-08-04T18:14:34.753Z,12.05
2018-08-04T18:17:14.917Z,11.95
2018-08-04T18:19:44.433Z,12.45
2018-08-04T18:22:13.084Z,11.05
2018-08-04T18:24:41.849Z,11.25
2018-08-04T18:27:12.715Z,13.13
2018-08-04T18:29:45.310Z,12.43
2018-08-04T18:32:13.968Z,12.53
2018-08-04T18:34:42.664Z,13.10
2018-08-04T18:37:11.348Z,12.90
2018-08-04T18:39:39.997Z,12.07
2018-08-04T18:42:16.809Z,12.63
2018-08-04T18:44:45.846Z,11.45
2018-08-04T18:47:14.527Z,11.63
2018-08-04T18:49:43.408Z,12.55
2018-08-04T18:52:12.140Z,13.15
2018-08-04T18:54:43.979Z,13.67
2018-08-04T18:57:12.699Z,13.47
2018-08-04T18:59:41.364Z,12.23
2018-08-04T19:02:10.038Z,13.83
2018-08-04T19:04:38.673Z,12.20
2018-08-04T19:07:07.337Z,12.17
2018-08-04T19:09:35.992Z,12.20
2018-08-04T19:12:04.708Z,12.50
2018-08-04T19:17:19.861Z,12.67
2018-08-04T19:19:48.629Z,12.70
2018-08-04T19:25:01.499Z,13.77
2018-08-04T19:27:30.127Z,12.73
2018-08-04T19:30:03.404Z,13.00
2018-08-04T19:32:32.092Z,12.40
2018-08-04T19:35:00.747Z,14.30
2018-08-04T19:37:29.399Z,13.43
2018-08-04T19:39:58.085Z,12.83
2018-08-04T19:42:26.727Z,13.60
2018-08-04T19:47:39.199Z,13.40
2018-08-04T19:50:08.312Z,13.03
2018-08-04T19:52:37.026Z,13.13
2018-08-04T19:55:06.119Z,13.63
2018-08-04T19:57:48.361Z,12.63
2018-08-04T20:00:23.208Z,13.80
2018-08-04T20:03:04.068Z,12.27
2018-08-04T20:05:34.933Z,14.40
2018-08-04T20:08:05.076Z,15.60
2018-08-04T20:10:42.281Z,13.50
2018-08-04T20:13:13.284Z,14.13
2018-08-04T20:15:53.397Z,13.20
2018-08-04T20:18:22.072Z,13.93
2018-08-04T20:20:50.735Z,13.27
2018-08-04T20:23:19.408Z,12.93
2018-08-04T20:25:48.143Z,13.73
2018-08-04T20:28:16.808Z,13.93
2018-08-04T20:30:49.127Z,13.80
2018-08-04T20:33:17.811Z,14.27
2018-08-04T20:35:46.571Z,13.77
2018-08-04T20:38:15.233Z,14.47
2018-08-04T20:40:43.872Z,13.57
2018-08-04T20:43:14.590Z,13.00
2018-08-04T20:45:44.851Z,13.07
2018-08-04T20:48:13.545Z,13.87
2018-08-04T20:50:42.191Z,12.97
2018-08-04T20:53:10.864Z,13.70
2018-08-04T20:55:40.027Z,13.13
2018-08-04T20:58:08.740Z,13.30
2018-08-04T21:00:40.617Z,13.23
2018-08-04T21:03:11.073Z,14.00
2018-08-04T21:05:45.582Z,12.90
2018-08-04T21:08:15.964Z,13.63
2018-08-04T21:10:44.695Z,13.80
2018-08-04T21:13:16.528Z,13.47
2018-08-04T21:15:45.195Z,12.87
2018-08-04T21:18:13.914Z,13.23
2018-08-04T21:20:42.582Z,13.97
2018-08-04T21:23:11.215Z,14.23
2018-08-04T21:25:40.300Z,13.33
2018-08-04T21:28:32.128Z,13.93
2018-08-04T21:31:00.829Z,16.20
2018-08-04T21:33:29.516Z,13.87
2018-08-04T21:36:00.028Z,13.60
2018-08-04T21:38:28.840Z,14.43
2018-08-04T21:41:00.059Z,14.70
2018-08-04T21:43:29.528Z,14.70
2018-08-04T21:45:58.262Z,15.10
2018-08-04T21:48:26.944Z,13.63
2018-08-04T21:50:56.196Z,13.53
2018-08-04T21:53:24.831Z,13.83
2018-08-04T21:55:53.536Z,15.03
2018-08-04T21:58:22.146Z,14.47
2018-08-04T22:00:56.256Z,14.27
2018-08-04T22:03:24.968Z,14.23
2018-08-04T22:05:54.255Z,13.97
2018-08-04T22:08:36.489Z,14.13
2018-08-04T22:11:13.592Z,14.20
2018-08-04T22:13:42.692Z,14.77
2018-08-04T22:16:11.336Z,15.00
2018-08-04T22:18:40.240Z,13.77
2018-08-04T22:21:09.017Z,14.27
2018-08-04T22:23:41.877Z,14.03
2018-08-04T22:26:13.768Z,13.87
2018-08-04T22:28:42.777Z,14.13
2018-08-04T22:31:15.396Z,15.83
2018-08-04T22:33:52.743Z,14.13
2018-08-04T22:36:21.485Z,14.30
2018-08-04T22:38:50.406Z,15.33
2018-08-04T22:41:19.152Z,14.73
2018-08-04T22:43:47.787Z,14.10
2018-08-04T22:46:18.099Z,15.07
2018-08-04T22:48:48.252Z,14.97
2018-08-04T22:51:23.059Z,14.70
2018-08-04T22:53:51.727Z,15.40
2018-08-04T22:56:21.690Z,14.53
2018-08-04T22:58:50.445Z,15.60
2018-08-04T23:01:19.260Z,13.67
2018-08-04T23:06:16.092Z,15.80
2018-08-04T23:08:44.734Z,15.33
2018-08-04T23:11:13.375Z,14.67
2018-08-04T23:13:42.039Z,13.63
2018-08-04T23:16:10.704Z,14.20
2018-08-04T23:18:39.397Z,15.10
2018-08-04T23:21:10.166Z,13.58
2018-08-04T23:23:38.830Z,13.03
2018-08-04T23:26:07.461Z,13.57
2018-08-04T23:28:36.112Z,13.07
2018-08-04T23:31:05.496Z,13.87
2018-08-04T23:33:34.201Z,13.90
2018-08-04T23:36:04.403Z,13.70
2018-08-04T23:38:39.247Z,12.40
2018-08-04T23:41:07.936Z,10.90
2018-08-04T23:43:36.615Z,10.50
2018-08-04T23:46:05.332Z,9.77
2018-08-04T23:48:34.167Z,9.73
2018-08-04T23:51:02.845Z,8.90
2018-08-04T23:53:31.514Z,9.23
2018-08-04T23:56:00.172Z,10.53
2018-08-04T23:58:28.825Z,11.97
